Time;durP1;ratioP1;P1;durP2;ratioP2;P2;SDS_P1;SDS_P2;PMS_P1;PMS_P2;Temp;Humidity;BMP_temperature;BMP_pressure;BME280_temperature;BME280_humidity;BME280_pressure;Samples;Min_cycle;Max_cycle;Signal;HPM_P1;HPM_P2
2022/11/09 00:00:48;;;;;;;2.15;0.70;;;11.30;99.90;;;;;;5000558;28;20091;-80
2022/11/09 00:03:14;;;;;;;1.60;0.70;;;11.30;99.90;;;;;;5016891;28;20480;-80
2022/11/09 00:05:40;;;;;;;4.38;1.05;;;11.30;99.90;;;;;;5015974;28;20038;-80
2022/11/09 00:08:10;;;;;;;3.38;0.85;;;11.30;99.90;;;;;;5000076;28;20046;-82
2022/11/09 00:10:36;;;;;;;2.85;0.93;;;11.40;99.90;;;;;;4981108;28;20192;-82
2022/11/09 00:13:03;;;;;;;4.03;1.02;;;11.40;99.90;;;;;;5004101;28;20045;-82
2022/11/09 00:15:29;;;;;;;3.20;1.13;;;11.30;99.90;;;;;;5013026;28;20093;-82
2022/11/09 00:17:54;;;;;;;0.85;0.70;;;11.30;99.90;;;;;;5014836;28;20081;-82
2022/11/09 00:20:20;;;;;;;2.72;1.02;;;11.30;99.90;;;;;;4997214;28;20042;-82
2022/11/09 00:22:47;;;;;;;1.40;0.65;;;11.40;99.90;;;;;;5013227;28;20045;-82
2022/11/09 00:25:13;;;;;;;1.63;0.82;;;11.40;99.90;;;;;;5013518;28;20045;-80
2022/11/09 00:27:39;;;;;;;6.05;1.38;;;11.30;99.90;;;;;;5012839;28;20044;-80
2022/11/09 00:30:05;;;;;;;2.58;1.45;;;11.30;99.90;;;;;;4996708;28;20041;-80
2022/11/09 00:32:31;;;;;;;2.40;1.00;;;11.30;99.90;;;;;;5013002;28;20476;-80
2022/11/09 00:34:56;;;;;;;4.88;1.08;;;11.40;99.90;;;;;;4996783;28;20132;-80
2022/11/09 00:37:22;;;;;;;1.77;0.90;;;11.40;99.90;;;;;;5012817;28;20034;-80
2022/11/09 00:39:48;;;;;;;1.30;0.90;;;11.40;99.90;;;;;;4996220;28;20089;-80
2022/11/09 00:42:13;;;;;;;2.45;0.70;;;11.40;99.90;;;;;;4996867;28;20034;-82
2022/11/09 00:44:39;;;;;;;1.70;0.73;;;11.40;99.90;;;;;;4996643;28;20034;-83
2022/11/09 00:47:05;;;;;;;1.65;0.70;;;11.40;99.90;;;;;;5012606;28;20037;-83
2022/11/09 00:49:31;;;;;;;2.58;1.08;;;11.40;99.90;;;;;;5013162;28;20100;-83
2022/11/09 00:51:56;;;;;;;3.40;1.30;;;11.40;99.90;;;;;;5012305;28;20536;-83
2022/11/09 00:54:22;;;;;;;2.53;1.25;;;11.40;99.90;;;;;;4995968;28;20045;-83
2022/11/09 00:56:48;;;;;;;4.43;1.75;;;11.40;99.90;;;;;;5012739;28;20042;-80
2022/11/09 00:59:14;;;;;;;3.13;1.48;;;11.40;99.90;;;;;;5012512;28;20100;-80
2022/11/09 01:01:39;;;;;;;7.38;2.25;;;11.40;99.90;;;;;;5012490;28;20124;-80
2022/11/09 01:04:05;;;;;;;3.13;1.67;;;11.40;99.90;;;;;;4996464;28;20034;-80
2022/11/09 01:06:31;;;;;;;3.90;1.52;;;11.40;99.90;;;;;;4995455;28;20507;-79
2022/11/09 01:08:57;;;;;;;6.13;2.05;;;11.50;99.90;;;;;;4996190;28;20421;-80
2022/11/09 01:11:22;;;;;;;2.33;1.50;;;11.60;99.90;;;;;;4979358;28;20455;-80
2022/11/09 01:13:48;;;;;;;4.28;1.67;;;11.70;99.90;;;;;;5012869;28;20093;-80
2022/11/09 01:16:17;;;;;;;6.75;1.80;;;11.80;99.90;;;;;;5012322;28;20069;-80
2022/11/09 01:18:43;;;;;;;4.88;1.70;;;11.80;99.90;;;;;;5012133;28;20057;-79
2022/11/09 01:21:11;;;;;;;2.65;1.70;;;11.90;99.90;;;;;;4979497;28;20042;-79
2022/11/09 01:23:37;;;;;;;3.42;1.50;;;12.00;99.90;;;;;;4995687;28;20041;-80
2022/11/09 01:26:07;;;;;;;5.03;1.65;;;12.00;99.90;;;;;;4995754;28;20076;-80
2022/11/09 01:28:33;;;;;;;4.43;2.10;;;12.10;99.90;;;;;;5012095;28;20380;-79
2022/11/09 01:31:11;;;;;;;3.80;1.83;;;12.10;99.90;;;;;;4996091;28;20471;-83
2022/11/09 01:33:37;;;;;;;3.03;1.45;;;12.10;99.90;;;;;;5011701;28;20132;-83
2022/11/09 01:36:06;;;;;;;3.72;1.27;;;12.00;99.90;;;;;;4995798;28;20038;-83
2022/11/09 01:38:32;;;;;;;3.15;1.55;;;12.00;99.90;;;;;;5011838;28;20133;-83
2022/11/09 01:40:58;;;;;;;2.65;1.23;;;12.00;99.90;;;;;;5011969;28;20038;-82
2022/11/09 01:43:24;;;;;;;4.50;1.45;;;11.90;99.90;;;;;;4979210;28;20037;-82
2022/11/09 01:46:10;;;;;;;6.07;1.77;;;11.90;99.90;;;;;;5012011;28;20044;-82
2022/11/09 01:48:50;;;;;;;7.10;1.63;;;11.90;99.90;;;;;;5012431;28;20388;-80
2022/11/09 01:51:40;;;;;;;4.43;1.67;;;11.90;99.90;;;;;;5011472;28;20554;-80
2022/11/09 01:54:17;;;;;;;1.83;1.20;;;11.80;99.90;;;;;;4998816;28;20045;-80
2022/11/09 01:56:45;;;;;;;2.63;1.70;;;11.80;99.90;;;;;;4992501;28;20042;-80
2022/11/09 01:59:16;;;;;;;6.35;1.50;;;11.80;99.90;;;;;;4992533;28;20125;-80
2022/11/09 02:01:43;;;;;;;4.35;1.52;;;11.80;99.90;;;;;;5007914;28;20045;-80
2022/11/09 02:04:20;;;;;;;2.80;1.55;;;11.70;99.90;;;;;;4994332;28;20047;-80
2022/11/09 02:06:46;;;;;;;4.68;1.70;;;11.60;99.90;;;;;;5011740;28;20396;-80
2022/11/09 02:09:33;;;;;;;4.82;1.80;;;11.50;99.90;;;;;;5011506;28;20046;-80
2022/11/09 02:11:59;;;;;;;5.25;1.40;;;11.40;99.90;;;;;;4988276;28;20046;-80
2022/11/09 02:14:26;;;;;;;3.72;1.63;;;11.30;99.90;;;;;;4996659;28;20101;-80
2022/11/09 02:16:52;;;;;;;6.32;1.90;;;11.30;99.90;;;;;;4998547;28;20543;-80
2022/11/09 02:19:18;;;;;;;5.93;2.40;;;11.20;99.90;;;;;;5018280;28;20137;-80
2022/11/09 02:21:44;;;;;;;3.72;1.77;;;11.20;99.90;;;;;;5001389;28;20543;-82
2022/11/09 02:24:10;;;;;;;3.95;1.50;;;11.20;99.90;;;;;;4985679;28;20069;-82
2022/11/09 02:26:39;;;;;;;5.85;1.50;;;11.20;99.90;;;;;;5002439;28;20048;-82
2022/11/09 02:29:08;;;;;;;3.28;1.67;;;11.20;99.90;;;;;;5018746;28;20037;-82
2022/11/09 02:31:38;;;;;;;3.67;2.03;;;11.20;99.90;;;;;;5001724;28;20040;-82
2022/11/09 02:34:16;;;;;;;7.13;1.95;;;11.20;99.90;;;;;;5018807;28;20037;-82
2022/11/09 02:36:42;;;;;;;8.05;1.88;;;11.20;99.90;;;;;;5002362;28;20124;-80
2022/11/09 02:39:09;;;;;;;3.45;1.50;;;11.20;99.90;;;;;;5002257;28;20128;-80
2022/11/09 02:41:45;;;;;;;4.47;1.85;;;11.20;99.90;;;;;;5017961;28;20046;-80
2022/11/09 02:44:12;;;;;;;2.85;1.42;;;11.20;99.90;;;;;;5002590;28;20030;-80
2022/11/09 02:46:38;;;;;;;3.80;1.98;;;11.20;99.90;;;;;;5018702;28;20428;-80
2022/11/09 02:49:04;;;;;;;4.85;2.08;;;11.10;99.90;;;;;;5018396;28;20041;-80
2022/11/09 02:51:30;;;;;;;5.15;1.60;;;11.10;99.90;;;;;;5017762;28;20080;-80
2022/11/09 02:53:56;;;;;;;5.85;1.75;;;11.20;99.90;;;;;;5018380;28;20042;-82
2022/11/09 02:56:22;;;;;;;8.05;1.88;;;11.10;99.90;;;;;;5027212;28;20048;-82
2022/11/09 02:58:48;;;;;;;6.93;1.77;;;11.10;99.90;;;;;;5014940;28;20045;-82
2022/11/09 03:01:13;;;;;;;3.20;1.73;;;11.20;99.90;;;;;;4998424;28;20104;-82
2022/11/09 03:03:39;;;;;;;8.75;1.83;;;11.20;99.90;;;;;;5001032;28;20044;-82
2022/11/09 03:06:05;;;;;;;3.85;1.83;;;11.10;99.90;;;;;;5001331;28;20125;-82
2022/11/09 03:08:31;;;;;;;5.50;1.70;;;11.20;99.90;;;;;;5018125;28;20076;-82
2022/11/09 03:10:58;;;;;;;2.65;1.33;;;11.20;99.90;;;;;;5018276;28;20049;-82
2022/11/09 03:13:24;;;;;;;5.28;1.77;;;11.10;99.90;;;;;;5001009;28;20076;-82
2022/11/09 03:15:50;;;;;;;4.80;1.52;;;11.00;99.90;;;;;;4984372;28;20081;-82
2022/11/09 03:18:15;;;;;;;4.07;1.67;;;11.00;99.90;;;;;;5000999;28;20041;-83
2022/11/09 03:20:41;;;;;;;4.18;1.58;;;11.00;99.90;;;;;;5017831;28;20095;-82
2022/11/09 03:23:07;;;;;;;3.08;1.60;;;11.10;99.90;;;;;;5001122;28;20060;-83
2022/11/09 03:25:32;;;;;;;3.00;1.25;;;11.00;99.90;;;;;;5016980;28;20041;-82
2022/11/09 03:28:01;;;;;;;5.20;1.63;;;11.10;99.90;;;;;;5000963;28;20045;-79
2022/11/09 03:30:27;;;;;;;5.53;1.55;;;11.10;99.90;;;;;;5000690;28;20048;-79
2022/11/09 03:33:00;;;;;;;4.50;1.90;;;11.50;99.90;;;;;;5017563;28;20083;-80
2022/11/09 03:35:26;;;;;;;5.60;1.13;;;11.10;99.90;;;;;;5000658;28;20041;-80
2022/11/09 03:37:52;;;;;;;3.80;1.58;;;11.00;99.90;;;;;;5016939;28;20111;-79
2022/11/09 03:40:18;;;;;;;6.00;1.70;;;10.90;99.90;;;;;;5001080;28;20037;-79
2022/11/09 03:42:46;;;;;;;6.55;1.80;;;10.90;99.90;;;;;;5017364;28;20041;-79
2022/11/09 03:45:15;;;;;;;6.32;1.58;;;10.80;99.90;;;;;;5000600;28;20471;-79
2022/11/09 03:47:43;;;;;;;6.32;1.48;;;10.90;99.90;;;;;;5000626;28;20039;-79
2022/11/09 03:50:09;;;;;;;7.10;1.70;;;10.90;99.90;;;;;;5017014;28;20029;-79
2022/11/09 03:52:35;;;;;;;4.28;1.50;;;10.80;99.90;;;;;;5017093;28;20049;-79
2022/11/09 03:55:03;;;;;;;4.03;1.17;;;10.90;99.90;;;;;;5012076;28;20034;-79
2022/11/09 03:57:28;;;;;;;5.32;1.65;;;10.90;99.90;;;;;;4998376;28;20045;-79
2022/11/09 03:59:54;;;;;;;6.80;1.70;;;10.90;99.90;;;;;;5000575;28;20048;-79
2022/11/09 04:02:20;;;;;;;6.55;1.92;;;10.90;99.90;;;;;;5000737;28;20037;-82
2022/11/09 04:04:45;;;;;;;4.28;1.10;;;10.90;99.90;;;;;;5016616;28;20048;-82
2022/11/09 04:07:11;;;;;;;7.25;1.90;;;11.00;99.90;;;;;;5017812;28;20121;-82
2022/11/09 04:09:37;;;;;;;3.13;1.27;;;11.00;99.90;;;;;;5016421;28;20049;-82
2022/11/09 04:12:03;;;;;;;7.90;1.67;;;11.00;99.90;;;;;;5016760;28;20057;-83
2022/11/09 04:14:29;;;;;;;5.72;1.60;;;11.00;99.90;;;;;;5016411;28;20125;-82
2022/11/09 04:16:55;;;;;;;3.83;1.42;;;11.00;99.90;;;;;;4999954;28;20081;-80
2022/11/09 04:19:20;;;;;;;5.70;1.55;;;11.00;99.90;;;;;;5016215;28;20038;-80
2022/11/09 04:21:46;;;;;;;6.07;1.27;;;11.10;99.90;;;;;;4999814;28;20590;-80
2022/11/09 04:24:12;;;;;;;4.90;1.33;;;11.10;99.90;;;;;;5000044;28;20033;-80
2022/11/09 04:26:37;;;;;;;3.58;1.70;;;11.10;99.90;;;;;;5000077;28;20041;-80
2022/11/09 04:29:03;;;;;;;3.92;1.63;;;11.10;99.90;;;;;;4999647;28;20484;-80
2022/11/09 04:31:29;;;;;;;3.00;1.23;;;11.00;99.90;;;;;;5020163;28;20230;-80
2022/11/09 04:33:55;;;;;;;4.22;1.33;;;11.10;99.90;;;;;;4999954;28;20514;-80
2022/11/09 04:36:20;;;;;;;2.85;1.30;;;11.10;99.90;;;;;;5016152;28;20099;-79
2022/11/09 04:38:46;;;;;;;2.83;1.30;;;11.10;99.90;;;;;;4999987;28;20072;-79
2022/11/09 04:41:13;;;;;;;4.45;1.60;;;11.10;99.90;;;;;;4998846;28;20102;-79
2022/11/09 04:43:38;;;;;;;4.10;1.30;;;11.10;99.90;;;;;;5016164;28;20037;-79
2022/11/09 04:46:04;;;;;;;6.90;1.80;;;11.10;99.90;;;;;;4983661;28;20502;-79
2022/11/09 04:48:31;;;;;;;4.35;1.42;;;11.10;99.90;;;;;;5015939;28;20049;-79
2022/11/09 04:51:02;;;;;;;8.73;1.35;;;11.10;99.90;;;;;;5015866;28;20052;-79
2022/11/09 04:53:29;;;;;;;8.00;1.75;;;11.10;99.90;;;;;;5015397;28;20396;-80
2022/11/09 04:55:55;;;;;;;4.78;1.65;;;11.20;99.90;;;;;;4999698;28;20128;-80
2022/11/09 04:58:21;;;;;;;5.40;1.83;;;11.20;99.90;;;;;;5015557;28;20483;-80
2022/11/09 05:00:48;;;;;;;7.50;1.40;;;11.20;99.90;;;;;;5027846;28;20052;-80
2022/11/09 05:03:14;;;;;;;5.57;1.40;;;11.10;99.90;;;;;;5015573;28;20550;-80
2022/11/09 05:05:40;;;;;;;4.13;1.25;;;11.10;99.90;;;;;;5016804;28;20041;-80
2022/11/09 05:08:07;;;;;;;4.47;1.40;;;11.10;99.90;;;;;;4997285;28;20406;-80
2022/11/09 05:10:33;;;;;;;3.28;1.50;;;11.10;99.90;;;;;;4999676;28;20045;-79
2022/11/09 05:13:09;;;;;;;6.07;1.38;;;11.10;99.90;;;;;;5016508;28;20545;-79
2022/11/09 05:15:35;;;;;;;5.25;1.52;;;11.10;99.90;;;;;;5015670;28;20065;-79
2022/11/09 05:18:02;;;;;;;5.95;1.63;;;11.20;99.90;;;;;;5006245;28;20476;-79
2022/11/09 05:20:28;;;;;;;4.93;1.73;;;11.30;99.90;;;;;;4999489;28;20471;-79
2022/11/09 05:25:39;;;;;;;3.30;1.23;;;11.30;99.90;;;;;;5015685;28;20049;-82
2022/11/09 05:28:05;;;;;;;8.82;1.65;;;11.40;99.90;;;;;;5031641;22;20049;-79
2022/11/09 05:30:31;;;;;;;3.90;1.27;;;11.30;99.90;;;;;;5031670;28;20049;-79
2022/11/09 05:32:56;;;;;;;3.47;1.10;;;11.30;99.90;;;;;;5031465;28;20041;-79
2022/11/09 05:35:22;;;;;;;4.75;1.33;;;11.30;99.90;;;;;;5015646;28;20041;-79
2022/11/09 05:37:49;;;;;;;3.97;1.65;;;11.30;99.90;;;;;;5030422;28;20033;-79
2022/11/09 05:40:16;;;;;;;6.30;1.77;;;11.30;99.90;;;;;;5012034;28;20045;-79
2022/11/09 05:42:42;;;;;;;3.42;1.42;;;11.30;99.90;;;;;;5015414;28;20048;-79
2022/11/09 05:45:11;;;;;;;4.03;1.50;;;11.30;99.90;;;;;;5049671;28;20049;-79
2022/11/09 05:47:41;;;;;;;4.53;1.40;;;11.20;99.90;;;;;;5031720;28;20049;-79
2022/11/09 05:50:09;;;;;;;4.10;1.48;;;11.10;99.90;;;;;;5015117;28;20044;-79
2022/11/09 05:52:34;;;;;;;2.60;1.20;;;11.10;99.90;;;;;;5032257;28;20045;-79
2022/11/09 05:55:00;;;;;;;5.03;1.35;;;11.10;99.90;;;;;;5037014;28;20049;-79
2022/11/09 05:57:27;;;;;;;4.20;1.52;;;11.00;99.90;;;;;;5019443;28;20395;-78
2022/11/09 05:59:52;;;;;;;4.72;1.50;;;11.00;99.90;;;;;;5035198;28;20044;-78
2022/11/09 06:02:19;;;;;;;3.72;1.10;;;11.00;99.90;;;;;;5019117;28;20049;-78
2022/11/09 06:04:44;;;;;;;4.05;1.58;;;11.00;99.90;;;;;;5036371;28;20053;-78
2022/11/09 06:07:10;;;;;;;4.47;1.63;;;10.90;99.90;;;;;;5035545;28;20041;-78
2022/11/09 06:09:36;;;;;;;4.07;1.30;;;10.90;99.90;;;;;;5018662;28;20088;-78
2022/11/09 06:12:01;;;;;;;5.88;1.58;;;10.80;99.90;;;;;;5035339;28;20099;-78
2022/11/09 06:14:27;;;;;;;6.65;2.00;;;10.80;99.90;;;;;;5019459;28;20049;-79
2022/11/09 06:16:53;;;;;;;4.57;1.50;;;10.80;99.90;;;;;;5034629;28;20048;-79
2022/11/09 06:19:19;;;;;;;10.93;2.08;;;10.80;99.90;;;;;;5018881;28;20368;-79
2022/11/09 06:21:44;;;;;;;3.75;1.55;;;10.80;99.90;;;;;;5034932;28;20037;-79
2022/11/09 06:24:10;;;;;;;3.83;1.65;;;10.70;99.90;;;;;;5035655;28;20045;-79
2022/11/09 06:26:36;;;;;;;6.65;1.10;;;10.70;99.90;;;;;;5034695;28;20044;-79
2022/11/09 06:29:03;;;;;;;2.47;0.93;;;10.70;99.90;;;;;;5018105;28;20045;-79
2022/11/09 06:31:29;;;;;;;4.82;1.70;;;10.70;99.90;;;;;;5018096;28;20076;-81
2022/11/09 06:33:55;;;;;;;5.63;2.10;;;10.70;99.90;;;;;;5018794;28;20046;-79
2022/11/09 06:36:20;;;;;;;5.20;1.73;;;10.70;99.90;;;;;;5035105;28;20052;-79
2022/11/09 06:38:50;;;;;;;5.45;1.23;;;10.70;99.90;;;;;;5034689;28;20060;-79
2022/11/09 06:41:16;;;;;;;2.50;1.20;;;10.70;99.90;;;;;;5034817;28;20052;-79
2022/11/09 06:43:42;;;;;;;5.03;1.48;;;10.80;99.90;;;;;;5034796;28;20033;-79
2022/11/09 06:46:11;;;;;;;2.75;1.10;;;10.60;99.90;;;;;;5035146;28;20509;-79
2022/11/09 06:48:38;;;;;;;6.50;1.77;;;10.60;99.90;;;;;;5031765;28;20247;-78
2022/11/09 06:51:04;;;;;;;3.53;1.50;;;10.60;99.90;;;;;;5027320;28;20049;-78
2022/11/09 06:53:32;;;;;;;5.90;1.58;;;10.60;99.90;;;;;;5034557;28;20087;-78
2022/11/09 06:55:59;;;;;;;2.45;1.20;;;10.70;99.90;;;;;;5034176;28;20041;-78
2022/11/09 06:58:24;;;;;;;6.82;1.52;;;10.70;99.90;;;;;;5017211;28;20100;-78
2022/11/09 07:00:50;;;;;;;5.68;1.20;;;10.70;99.90;;;;;;5034325;28;20041;-78
2022/11/09 07:03:18;;;;;;;4.97;1.35;;;10.60;99.90;;;;;;5034231;28;20041;-78
2022/11/09 07:05:44;;;;;;;5.63;1.30;;;10.60;99.90;;;;;;5033737;28;20033;-79
2022/11/09 07:08:10;;;;;;;6.10;1.73;;;11.50;99.90;;;;;;5017560;28;20197;-79
2022/11/09 07:10:37;;;;;;;9.63;2.30;;;10.60;99.90;;;;;;5018112;28;20076;-79
2022/11/09 07:13:03;;;;;;;7.78;1.35;;;10.50;99.90;;;;;;5033557;28;20053;-79
2022/11/09 07:15:29;;;;;;;4.07;1.48;;;10.50;99.90;;;;;;5034341;28;20045;-79
2022/11/09 07:17:59;;;;;;;3.78;1.40;;;10.50;99.90;;;;;;5034191;28;20128;-79
2022/11/09 07:20:25;;;;;;;2.33;1.20;;;10.50;99.90;;;;;;5034199;28;20124;-82
2022/11/09 07:22:51;;;;;;;3.85;0.93;;;10.60;99.90;;;;;;5017853;28;20065;-82
2022/11/09 07:25:18;;;;;;;4.22;1.30;;;10.60;99.90;;;;;;5017038;28;20518;-82
2022/11/09 07:27:44;;;;;;;7.78;1.50;;;10.70;99.90;;;;;;5017538;28;20086;-82
2022/11/09 07:30:10;;;;;;;4.63;1.15;;;10.70;99.90;;;;;;5033604;28;20136;-82
2022/11/09 07:32:37;;;;;;;2.85;1.10;;;10.80;99.90;;;;;;5016957;28;20045;-82
2022/11/09 07:35:04;;;;;;;5.03;1.25;;;11.10;99.90;;;;;;5017572;28;20128;-82
2022/11/09 07:37:30;;;;;;;5.35;1.08;;;11.10;99.90;;;;;;5033813;28;20126;-80
2022/11/09 07:39:56;;;;;;;4.93;1.73;;;11.50;99.90;;;;;;5017315;28;20038;-80
2022/11/09 07:42:22;;;;;;;5.70;1.30;;;12.00;99.90;;;;;;5000593;28;20037;-79
2022/11/09 07:44:48;;;;;;;3.85;1.20;;;12.40;99.90;;;;;;5033053;28;20507;-79
2022/11/09 07:47:14;;;;;;;3.45;1.25;;;12.70;99.90;;;;;;5016779;28;20041;-79
2022/11/09 07:49:40;;;;;;;3.85;1.10;;;13.10;99.90;;;;;;5016687;28;20045;-79
2022/11/09 07:52:06;;;;;;;4.78;1.63;;;13.30;99.90;;;;;;4996723;28;20121;-79
2022/11/09 07:54:31;;;;;;;4.93;2.72;;;13.70;99.90;;;;;;5031111;28;20594;-79
2022/11/09 07:56:57;;;;;;;6.10;1.25;;;14.10;99.90;;;;;;5033492;28;20099;-79
2022/11/09 07:59:23;;;;;;;3.50;1.55;;;14.20;99.90;;;;;;5033011;28;20038;-79
2022/11/09 08:01:49;;;;;;;7.18;1.40;;;14.50;99.90;;;;;;5033356;28;20041;-79
2022/11/09 08:04:14;;;;;;;4.07;1.35;;;14.50;99.90;;;;;;5032736;28;20040;-79
2022/11/09 08:06:40;;;;;;;3.15;1.20;;;14.60;99.90;;;;;;5016628;28;20034;-79
2022/11/09 08:09:06;;;;;;;8.05;1.30;;;14.80;99.90;;;;;;5033430;28;20052;-79
2022/11/09 08:11:31;;;;;;;4.20;1.00;;;15.20;99.90;;;;;;5033072;28;20056;-77
2022/11/09 08:13:57;;;;;;;7.55;1.42;;;15.50;99.90;;;;;;5032244;28;20045;-79
2022/11/09 08:16:23;;;;;;;6.03;1.30;;;15.90;99.90;;;;;;5015987;28;20045;-79
2022/11/09 08:18:50;;;;;;;5.40;1.65;;;16.20;99.90;;;;;;5017076;28;20045;-79
2022/11/09 08:21:17;;;;;;;4.38;1.30;;;16.80;99.90;;;;;;5033263;28;20045;-79
2022/11/09 08:23:42;;;;;;;5.95;1.60;;;16.80;99.90;;;;;;5032145;28;20045;-79
2022/11/09 08:26:10;;;;;;;4.93;1.30;;;17.20;99.90;;;;;;5032153;28;20058;-79
2022/11/09 08:28:35;;;;;;;3.78;1.25;;;17.80;99.90;;;;;;5032755;28;20132;-78
2022/11/09 08:31:04;;;;;;;7.13;1.20;;;18.00;99.90;;;;;;5032906;28;20136;-78
2022/11/09 08:33:32;;;;;;;6.57;1.05;;;;;;;;;;5032600;28;20048;-78
2022/11/09 08:35:58;;;;;;;4.45;1.45;;;17.40;99.90;;;;;;5032139;28;20079;-78
2022/11/09 08:38:24;;;;;;;4.03;1.17;;;17.20;99.90;;;;;;5015904;28;20045;-78
2022/11/09 08:40:54;;;;;;;4.88;0.93;;;16.70;99.90;;;;;;5016267;28;20106;-78
2022/11/09 08:43:20;;;;;;;5.57;1.17;;;16.40;99.90;;;;;;5016462;28;20041;-78
2022/11/09 08:45:46;;;;;;;5.70;2.05;;;16.40;99.90;;;;;;5032188;28;20428;-78
2022/11/09 08:48:15;;;;;;;3.47;1.25;;;17.10;99.90;;;;;;5032997;28;20045;-78
2022/11/09 08:50:41;;;;;;;3.33;0.98;;;17.20;99.90;;;;;;5032581;28;20056;-78
2022/11/09 08:53:07;;;;;;;3.95;1.52;;;18.30;99.90;;;;;;5016112;28;20049;-78
2022/11/09 08:55:33;;;;;;;8.18;1.70;;;18.40;99.90;;;;;;5015188;28;20052;-78
2022/11/09 08:58:01;;;;;;;6.82;1.80;;;19.00;99.90;;;;;;5028036;28;20034;-77
2022/11/09 09:00:27;;;;;;;5.82;1.83;;;19.40;99.90;;;;;;5008815;28;20030;-79
2022/11/09 09:02:52;;;;;;;5.28;1.02;;;19.20;99.90;;;;;;5027637;28;20399;-81
2022/11/09 09:05:19;;;;;;;2.72;0.90;;;18.70;99.90;;;;;;5015215;28;20040;-80
2022/11/09 09:07:44;;;;;;;5.07;1.13;;;18.40;99.90;;;;;;5026362;28;20124;-80
2022/11/09 09:10:11;;;;;;;3.92;1.33;;;18.60;99.90;;;;;;4998790;28;20117;-80
2022/11/09 09:12:36;;;;;;;1.88;1.05;;;18.20;99.90;;;;;;5032070;28;20049;-80
2022/11/09 09:15:03;;;;;;;2.22;0.93;;;17.70;99.90;;;;;;5015416;28;20089;-83
2022/11/09 09:17:28;;;;;;;4.88;1.77;;;16.70;99.90;;;;;;5031238;28;20065;-82
2022/11/09 09:19:54;;;;;;;4.05;1.38;;;16.20;99.90;;;;;;5013856;28;20539;-82
2022/11/09 09:22:20;;;;;;;2.17;0.98;;;16.10;99.90;;;;;;5003135;28;20128;-82
2022/11/09 09:24:46;;;;;;;4.45;1.00;;;15.70;99.90;;;;;;5019821;28;20033;-81
2022/11/09 09:27:12;;;;;;;6.30;1.33;;;15.30;99.90;;;;;;5014462;28;20033;-82
2022/11/09 09:29:38;;;;;;;3.85;1.30;;;15.10;99.90;;;;;;5031917;28;20069;-82
2022/11/09 09:32:04;;;;;;;3.83;2.03;;;15.00;99.90;;;;;;5015494;28;20045;-82
2022/11/09 09:34:29;;;;;;;3.72;1.27;;;14.80;99.90;;;;;;4999310;28;20045;-80
2022/11/09 09:36:55;;;;;;;8.90;2.22;;;14.80;99.90;;;;;;5031688;28;20387;-80
2022/11/09 09:39:21;;;;;;;4.10;1.05;;;14.70;99.90;;;;;;5015314;28;20106;-80
2022/11/09 09:41:51;;;;;;;4.63;1.05;;;14.80;99.90;;;;;;4998964;28;20037;-80
2022/11/09 09:44:32;;;;;;;4.07;1.42;;;15.10;99.90;;;;;;5015567;28;20041;-79
2022/11/09 09:47:16;;;;;;;3.25;0.95;;;15.80;99.90;;;;;;5015422;28;20492;-80
2022/11/09 09:49:52;;;;;;;3.20;0.82;;;15.80;99.90;;;;;;5031777;28;20045;-80
2022/11/09 09:52:39;;;;;;;2.65;1.30;;;16.00;99.90;;;;;;5032217;28;20483;-80
2022/11/09 09:55:08;;;;;;;3.25;1.10;;;15.90;99.90;;;;;;5015751;28;20128;-80
2022/11/09 09:57:36;;;;;;;4.32;1.23;;;15.90;99.90;;;;;;5012037;28;20309;-79
2022/11/09 10:00:06;;;;;;;3.97;1.60;;;15.80;99.90;;;;;;5029585;28;20034;-79
2022/11/09 10:02:35;;;;;;;3.50;0.93;;;15.70;99.90;;;;;;5031717;28;20045;-80
2022/11/09 10:05:06;;;;;;;3.95;1.10;;;15.70;99.90;;;;;;5031537;28;20076;-80
2022/11/09 10:08:11;;;;;;;3.60;1.30;;;15.80;99.90;;;;;;5031558;28;20029;-82
2022/11/09 10:10:53;;;;;;;5.20;1.40;;;16.20;99.90;;;;;;5012151;28;20377;-82
2022/11/09 10:13:47;;;;;;;7.43;1.95;;;16.20;99.90;;;;;;5031525;28;20045;-82
2022/11/09 10:16:30;;;;;;;5.43;1.73;;;16.20;99.90;;;;;;5015141;28;20496;-82
2022/11/09 10:19:17;;;;;;;3.20;1.20;;;16.20;99.90;;;;;;5015158;28;20417;-82
2022/11/09 10:21:57;;;;;;;5.43;2.00;;;16.00;99.90;;;;;;5016540;28;20038;-82
2022/11/09 10:24:26;;;;;;;5.25;1.65;;;15.80;99.90;;;;;;5030279;28;20124;-80
2022/11/09 10:26:55;;;;;;;2.58;2.00;;;15.40;99.90;;;;;;5023215;28;20428;-79
2022/11/09 10:29:44;;;;;;;4.90;1.65;;;15.50;99.90;;;;;;5028272;28;20187;-80
2022/11/09 10:32:16;;;;;;;3.42;1.38;;;15.70;99.90;;;;;;5030871;28;20510;-80
2022/11/09 10:34:54;;;;;;;2.92;1.77;;;16.00;99.90;;;;;;5027845;28;20095;-80
2022/11/09 10:37:40;;;;;;;4.53;1.63;;;16.40;99.90;;;;;;5031343;28;20483;-80
2022/11/09 10:40:09;;;;;;;5.90;2.05;;;16.50;99.90;;;;;;5018761;28;20124;-80
2022/11/09 10:42:35;;;;;;;4.97;1.70;;;16.30;99.90;;;;;;5018726;28;20048;-80
2022/11/09 10:45:11;;;;;;;5.45;1.83;;;16.00;99.90;;;;;;5035404;28;20464;-79
2022/11/09 10:47:51;;;;;;;5.18;1.63;;;15.60;99.90;;;;;;5035477;28;20385;-79
2022/11/09 10:50:23;;;;;;;6.90;1.45;;;15.30;99.90;;;;;;5019109;28;20037;-80
2022/11/09 10:52:49;;;;;;;5.20;1.90;;;15.20;99.90;;;;;;5035479;28;20041;-80
2022/11/09 10:55:16;;;;;;;5.50;2.33;;;15.60;99.90;;;;;;5018751;28;20124;-80
2022/11/09 10:58:27;;;;;;;9.02;1.60;;;15.50;99.90;;;;;;5034571;28;20120;-80
2022/11/09 11:00:59;;;;;;;3.10;1.90;;;15.20;99.90;;;;;;5018964;28;20415;-80
2022/11/09 11:03:25;;;;;;;4.35;1.77;;;15.00;99.90;;;;;;5034008;28;20037;-80
2022/11/09 11:06:14;;;;;;;3.22;1.67;;;14.80;99.90;;;;;;5018091;28;20037;-80
2022/11/09 11:08:42;;;;;;;6.20;1.90;;;14.80;99.90;;;;;;5024680;28;20076;-80
2022/11/09 11:11:16;;;;;;;5.57;2.53;;;14.70;99.90;;;;;;5034328;28;20049;-80
2022/11/09 11:13:42;;;;;;;6.07;2.10;;;14.50;99.90;;;;;;5034294;28;20038;-82
2022/11/09 11:16:25;;;;;;;4.13;1.70;;;14.20;99.90;;;;;;5034937;28;20107;-82
2022/11/09 11:18:50;;;;;;;4.18;1.30;;;14.20;99.90;;;;;;5034882;28;20048;-82
2022/11/09 11:21:19;;;;;;;4.22;1.60;;;14.10;99.90;;;;;;5035065;28;20042;-82
2022/11/09 11:24:11;;;;;;;4.82;2.00;;;14.00;99.90;;;;;;5034842;28;20381;-82
2022/11/09 11:26:39;;;;;;;5.18;1.75;;;13.90;99.90;;;;;;5026626;28;20041;-83
2022/11/09 11:29:20;;;;;;;3.35;1.80;;;13.90;99.90;;;;;;5017933;28;20435;-80
2022/11/09 11:31:46;;;;;;;3.45;1.50;;;13.90;99.90;;;;;;5018725;28;20045;-79
2022/11/09 11:34:13;;;;;;;2.95;1.65;;;13.90;99.90;;;;;;5034716;28;20037;-79
2022/11/09 11:36:48;;;;;;;3.90;1.63;;;14.00;99.90;;;;;;5034518;28;20108;-80
2022/11/09 11:39:35;;;;;;;5.07;2.03;;;14.10;99.90;;;;;;5034376;28;20045;-79
2022/11/09 11:42:06;;;;;;;6.25;1.88;;;14.00;99.90;;;;;;4998639;28;20034;-80
2022/11/09 11:44:37;;;;;;;5.45;2.65;;;14.00;99.90;;;;;;5015122;28;20076;-80
2022/11/09 11:47:24;;;;;;;6.38;1.90;;;14.00;99.90;;;;;;5025237;28;20452;-80
2022/11/09 11:50:29;;;;;;;5.25;2.05;;;13.90;99.90;;;;;;5017734;28;20045;-79
2022/11/09 11:53:10;;;;;;;5.65;1.77;;;13.90;99.90;;;;;;5012322;28;20064;-79
2022/11/09 11:56:03;;;;;;;4.72;1.70;;;13.90;99.90;;;;;;5006140;28;20053;-79
2022/11/09 11:58:46;;;;;;;5.68;1.50;;;13.90;99.90;;;;;;5032882;28;20096;-79
2022/11/09 12:01:49;;;;;;;3.97;2.00;;;13.90;99.90;;;;;;5017513;28;20112;-79
2022/11/09 12:04:34;;;;;;;6.00;1.77;;;13.70;99.90;;;;;;5034411;28;20037;-82
2022/11/09 12:07:27;;;;;;;6.18;1.70;;;13.70;99.90;;;;;;5034257;28;20116;-82
2022/11/09 12:10:15;;;;;;;4.85;1.88;;;13.60;99.90;;;;;;5017417;28;20371;-82
2022/11/09 12:12:58;;;;;;;5.18;1.70;;;13.60;99.90;;;;;;5034153;28;20042;-82
2022/11/09 12:15:37;;;;;;;6.78;2.67;;;13.60;99.90;;;;;;5017455;28;20048;-82
2022/11/09 12:18:18;;;;;;;8.45;1.83;;;13.60;99.90;;;;;;5016552;28;20148;-82
2022/11/09 12:20:46;;;;;;;4.05;2.30;;;13.60;99.90;;;;;;5032979;28;20075;-82
2022/11/09 12:23:22;;;;;;;4.53;1.48;;;13.70;99.90;;;;;;5017352;28;20447;-82
2022/11/09 12:26:33;;;;;;;7.40;2.63;;;13.80;99.90;;;;;;5033716;28;20045;-82
2022/11/09 12:29:28;;;;;;;9.95;2.28;;;14.00;99.90;;;;;;5020257;28;20065;-82
2022/11/09 12:32:27;;;;;;;3.72;1.70;;;14.00;99.90;;;;;;5033683;28;20116;-82
2022/11/09 12:35:30;;;;;;;6.07;1.85;;;14.00;99.90;;;;;;5011456;28;20053;-82
2022/11/09 12:38:08;;;;;;;4.43;1.20;;;14.00;99.90;;;;;;5031303;28;20084;-79
2022/11/09 12:40:38;;;;;;;3.63;1.30;;;13.90;99.90;;;;;;5031622;28;20053;-79
2022/11/09 12:43:43;;;;;;;4.20;1.27;;;13.70;99.90;;;;;;5020166;28;20090;-79
2022/11/09 12:46:10;;;;;;;4.95;1.25;;;13.60;99.90;;;;;;5028502;28;20068;-79
2022/11/09 12:48:36;;;;;;;1.67;1.08;;;13.30;99.90;;;;;;5032758;28;20049;-78
2022/11/09 12:51:04;;;;;;;1.67;0.98;;;13.10;99.90;;;;;;5016745;28;20048;-78
2022/11/09 12:53:36;;;;;;;1.58;1.02;;;13.00;99.90;;;;;;5032790;28;20045;-78
2022/11/09 12:56:09;;;;;;;0.77;0.55;;;12.70;99.90;;;;;;5026562;28;20043;-79
2022/11/09 12:58:37;;;;;;;1.10;0.80;;;12.50;99.90;;;;;;5015372;28;20057;-79
2022/11/09 13:01:05;;;;;;;3.03;0.95;;;12.30;99.90;;;;;;5007500;28;20188;-79
2022/11/09 13:03:34;;;;;;;2.05;1.35;;;12.20;99.90;;;;;;5029102;28;20048;-79